Time;durP1;ratioP1;P1;durP2;ratioP2;P2;SDS_P1;SDS_P2;PMS_P1;PMS_P2;Temp;Humidity;BMP_temperature;BMP_pressure;BME280_temperature;BME280_humidity;BME280_pressure;Samples;Min_cycle;Max_cycle;Signal;HPM_P1;HPM_P2
2023/06/08 00:01:16;;;;;;;0.65;0.63;;;;;;;;;;2094894;28;20059;-60
2023/06/08 00:02:36;;;;;;;1.00;0.63;;;;;;;;;;2095434;28;20025;-59
2023/06/08 00:03:55;;;;;;;2.22;0.93;;;;;;;;;;2093270;28;20021;-59
2023/06/08 00:05:16;;;;;;;1.55;0.80;;;;;;;;;;2094442;28;20025;-59
2023/06/08 00:06:37;;;;;;;0.52;0.50;;;;;;;;;;2093597;28;20021;-60
2023/06/08 00:07:56;;;;;;;0.70;0.50;;;;;;;;;;2092038;28;20061;-60
2023/06/08 00:09:16;;;;;;;0.68;0.60;;;;;;;;;;2091463;28;20024;-57
2023/06/08 00:10:35;;;;;;;5.25;1.02;;;;;;;;;;2092867;28;20373;-59
2023/06/08 00:11:55;;;;;;;0.80;0.70;;;;;;;;;;2093350;28;20032;-59
2023/06/08 00:13:16;;;;;;;3.33;0.70;;;;;;;;;;2094127;28;20025;-59
2023/06/08 00:14:35;;;;;;;1.55;0.68;;;;;;;;;;2092357;28;20477;-60
2023/06/08 00:15:54;;;;;;;0.88;0.75;;;;;;;;;;2092791;28;20194;-60
2023/06/08 00:17:13;;;;;;;1.30;0.80;;;;;;;;;;2093422;28;20025;-59
2023/06/08 00:18:32;;;;;;;1.58;0.70;;;;;;;;;;2091806;28;20017;-58
2023/06/08 00:19:52;;;;;;;3.10;0.80;;;;;;;;;;2094110;28;20144;-59
2023/06/08 00:21:15;;;;;;;2.05;0.60;;;;;;;;;;2091315;28;20405;-60
2023/06/08 00:22:36;;;;;;;0.82;0.82;;;;;;;;;;2095104;28;20025;-60
2023/06/08 00:23:55;;;;;;;3.75;0.77;;;;;;;;;;2095993;28;20107;-60
2023/06/08 00:25:15;;;;;;;1.75;0.85;;;;;;;;;;2094899;28;20095;-60
2023/06/08 00:26:34;;;;;;;0.60;0.60;;;;;;;;;;2094552;28;20024;-60
2023/06/08 00:27:53;;;;;;;3.10;0.95;;;;;;;;;;2094487;28;20470;-60
2023/06/08 00:29:12;;;;;;;1.40;0.70;;;;;;;;;;2091433;28;20033;-60
2023/06/08 00:30:31;;;;;;;1.30;0.75;;;;;;;;;;2092683;28;20489;-60
2023/06/08 00:31:50;;;;;;;1.00;0.70;;;;;;;;;;2084240;28;20049;-60
2023/06/08 00:33:09;;;;;;;1.25;0.85;;;;;;;;;;2090968;28;20444;-60
2023/06/08 00:34:28;;;;;;;0.82;0.70;;;;;;;;;;2093879;28;20036;-61
2023/06/08 00:35:47;;;;;;;1.08;0.60;;;;;;;;;;2093570;28;20029;-59
2023/06/08 00:37:06;;;;;;;0.63;0.63;;;;;;;;;;2093557;28;20033;-60
2023/06/08 00:38:25;;;;;;;1.27;0.73;;;;;;;;;;2093401;28;20028;-58
2023/06/08 00:39:44;;;;;;;2.08;0.80;;;;;;;;;;2090096;28;20020;-60
2023/06/08 00:41:05;;;;;;;0.70;0.70;;;;;;;;;;2083903;28;20029;-59
2023/06/08 00:42:24;;;;;;;2.15;0.70;;;;;;;;;;2090414;28;20029;-59
2023/06/08 00:43:44;;;;;;;0.85;0.77;;;;;;;;;;2094651;28;20040;-59
2023/06/08 00:45:04;;;;;;;4.88;0.90;;;;;;;;;;2094100;28;20032;-60
2023/06/08 00:46:24;;;;;;;0.70;0.70;;;;;;;;;;2095010;28;20020;-59
2023/06/08 00:47:43;;;;;;;0.75;0.57;;;;;;;;;;2093707;28;20539;-59
2023/06/08 00:49:03;;;;;;;1.73;0.90;;;;;;;;;;2093905;28;20017;-59
2023/06/08 00:50:24;;;;;;;1.25;0.73;;;;;;;;;;2075651;28;20030;-59
2023/06/08 00:51:44;;;;;;;0.82;0.73;;;;;;;;;;2087725;28;20020;-59
2023/06/08 00:53:03;;;;;;;0.73;0.73;;;;;;;;;;2092527;28;20052;-59
2023/06/08 00:54:24;;;;;;;1.77;0.85;;;;;;;;;;2092028;28;20029;-59
2023/06/08 00:55:44;;;;;;;0.60;0.60;;;;;;;;;;2093260;28;20520;-60
2023/06/08 00:57:05;;;;;;;2.45;0.90;;;;;;;;;;2092706;28;20108;-60
2023/06/08 00:58:25;;;;;;;1.67;0.85;;;;;;;;;;2090826;28;20025;-59
2023/06/08 00:59:49;;;;;;;1.60;0.60;;;;;;;;;;2093787;28;20393;-59
2023/06/08 01:01:12;;;;;;;1.02;0.68;;;;;;;;;;2093308;28;20494;-60
2023/06/08 01:02:31;;;;;;;1.00;0.77;;;;;;;;;;2094445;28;20025;-59
2023/06/08 01:03:55;;;;;;;1.42;0.70;;;;;;;;;;2092966;28;20021;-59
2023/06/08 01:05:16;;;;;;;0.60;0.60;;;;;;;;;;2094899;28;20041;-60
2023/06/08 01:06:36;;;;;;;1.25;0.70;;;;;;;;;;2094889;28;20021;-63
2023/06/08 01:07:58;;;;;;;2.00;0.85;;;;;;;;;;2087064;28;20025;-59
2023/06/08 01:09:24;;;;;;;0.82;0.73;;;;;;;;;;2093720;28;20020;-60
2023/06/08 01:11:01;;;;;;;2.58;0.70;;;;;;;;;;2095568;28;20032;-62
2023/06/08 01:12:41;;;;;;;1.98;0.80;;;;;;;;;;2093625;28;20032;-60
2023/06/08 01:14:19;;;;;;;1.95;0.93;;;;;;;;;;2093416;28;20033;-59
2023/06/08 01:15:39;;;;;;;0.60;0.60;;;;;;;;;;2093393;28;20386;-59
2023/06/08 01:17:00;;;;;;;1.65;0.90;;;;;;;;;;2094573;28;20033;-60
2023/06/08 01:18:23;;;;;;;3.30;0.70;;;;;;;;;;2092782;28;20033;-60
2023/06/08 01:19:42;;;;;;;;;;;;;;;;;;2094602;28;20033;-60
2023/06/08 01:21:24;;;;;;;2.75;1.00;;;;;;;;;;2093611;28;19916;-60
2023/06/08 01:22:46;;;;;;;1.02;0.80;;;;;;;;;;2094402;28;20020;-58
2023/06/08 01:24:12;;;;;;;2.78;0.90;;;;;;;;;;2091609;28;20048;-59
2023/06/08 01:25:32;;;;;;;9.00;1.00;;;;;;;;;;2093623;28;20033;-59
2023/06/08 01:26:53;;;;;;;1.67;0.70;;;;;;;;;;2091956;28;20489;-60
2023/06/08 01:28:12;;;;;;;2.95;0.95;;;;;;;;;;2093956;28;20041;-60
2023/06/08 01:29:33;;;;;;;2.25;0.70;;;;;;;;;;2093792;28;20028;-60
2023/06/08 01:30:52;;;;;;;5.13;1.08;;;;;;;;;;2094404;28;20448;-59
2023/06/08 01:32:11;;;;;;;0.70;0.70;;;;;;;;;;2094235;28;20041;-59
2023/06/08 01:33:30;;;;;;;1.33;0.77;;;;;;;;;;2094791;28;20051;-60
2023/06/08 01:34:50;;;;;;;0.90;0.75;;;;;;;;;;2090770;28;20036;-59
2023/06/08 01:36:38;;;;;;;3.22;0.70;;;;;;;;;;2094089;28;20557;-60
2023/06/08 01:38:03;;;;;;;0.50;0.50;;;;;;;;;;2085334;28;20045;-61
2023/06/08 01:39:31;;;;;;;2.05;0.73;;;;;;;;;;2094727;28;20037;-60
2023/06/08 01:40:53;;;;;;;0.80;0.80;;;;;;;;;;2092315;28;20024;-60
2023/06/08 01:42:14;;;;;;;0.60;0.60;;;;;;;;;;2093234;28;20029;-59
2023/06/08 01:43:33;;;;;;;2.25;0.80;;;;;;;;;;2090257;28;20655;-59
2023/06/08 01:45:00;;;;;;;2.90;1.10;;;;;;;;;;2092213;28;20413;-60
2023/06/08 01:46:21;;;;;;;0.82;0.80;;;;;;;;;;2086393;28;20025;-59
2023/06/08 01:47:45;;;;;;;1.80;0.75;;;;;;;;;;2082787;28;20029;-59
2023/06/08 01:49:04;;;;;;;1.08;0.98;;;;;;;;;;2093164;28;20028;-59
2023/06/08 01:50:24;;;;;;;2.35;0.50;;;;;;;;;;2095694;28;20028;-60
2023/06/08 01:51:43;;;;;;;1.40;0.80;;;;;;;;;;2096930;28;20060;-60
2023/06/08 01:53:02;;;;;;;2.78;0.80;;;;;;;;;;2092872;28;20056;-58
2023/06/08 01:54:21;;;;;;;1.58;0.80;;;;;;;;;;2093085;28;20464;-59
2023/06/08 01:55:40;;;;;;;1.48;1.00;;;;;;;;;;2095889;28;20033;-60
2023/06/08 01:56:59;;;;;;;1.98;0.75;;;;;;;;;;2095450;28;20044;-58
2023/06/08 01:58:18;;;;;;;0.70;0.68;;;;;;;;;;2095120;28;20381;-60
2023/06/08 01:59:37;;;;;;;0.98;0.73;;;;;;;;;;2093458;28;20045;-59
2023/06/08 02:00:56;;;;;;;0.70;0.70;;;;;;;;;;2090122;28;20032;-58
2023/06/08 02:02:15;;;;;;;0.70;0.70;;;;;;;;;;2095295;28;20155;-59
2023/06/08 02:03:34;;;;;;;2.67;0.80;;;;;;;;;;2096001;28;20029;-59
2023/06/08 02:04:53;;;;;;;1.25;0.93;;;;;;;;;;2093830;28;20029;-60
2023/06/08 02:06:12;;;;;;;0.98;0.70;;;;;;;;;;2093866;28;20021;-61
2023/06/08 02:07:31;;;;;;;1.02;0.70;;;;;;;;;;2095856;28;20052;-59
2023/06/08 02:08:50;;;;;;;2.25;0.88;;;;;;;;;;2097287;28;20025;-60
2023/06/08 02:10:09;;;;;;;1.30;0.60;;;;;;;;;;2095201;28;20428;-59
2023/06/08 02:11:28;;;;;;;1.73;0.80;;;;;;;;;;2095443;28;20033;-58
2023/06/08 02:12:47;;;;;;;2.15;0.70;;;;;;;;;;2096357;28;20044;-59
2023/06/08 02:14:06;;;;;;;1.85;0.80;;;;;;;;;;2093583;28;20033;-59
2023/06/08 02:15:26;;;;;;;1.50;1.00;;;;;;;;;;2092632;28;20028;-60
2023/06/08 02:16:45;;;;;;;0.90;0.90;;;;;;;;;;2096041;28;20060;-59
2023/06/08 02:18:05;;;;;;;5.82;0.95;;;;;;;;;;2094300;28;20485;-59
2023/06/08 02:19:24;;;;;;;2.40;0.75;;;;;;;;;;2095120;28;20478;-57
2023/06/08 02:20:43;;;;;;;0.95;0.70;;;;;;;;;;2095291;28;20024;-59
2023/06/08 02:22:02;;;;;;;2.28;0.90;;;;;;;;;;2086784;28;20034;-61
2023/06/08 02:23:21;;;;;;;1.25;0.80;;;;;;;;;;2089407;28;20501;-57
2023/06/08 02:24:42;;;;;;;2.80;0.90;;;;;;;;;;2092258;28;20021;-58
2023/06/08 02:26:01;;;;;;;0.93;0.80;;;;;;;;;;2094892;28;20029;-58
2023/06/08 02:27:20;;;;;;;1.42;1.00;;;;;;;;;;2096670;28;20024;-59
2023/06/08 02:28:39;;;;;;;1.13;0.90;;;;;;;;;;2095719;28;20033;-59
2023/06/08 02:29:58;;;;;;;0.85;0.60;;;;;;;;;;2095927;28;20580;-58
2023/06/08 02:31:18;;;;;;;0.82;0.80;;;;;;;;;;2097062;28;20485;-59
2023/06/08 02:32:37;;;;;;;3.03;1.02;;;;;;;;;;2095163;28;20024;-59
2023/06/08 02:33:56;;;;;;;2.80;1.10;;;;;;;;;;2094449;28;20045;-59
2023/06/08 02:35:15;;;;;;;0.63;0.63;;;;;;;;;;2094244;28;20489;-60
2023/06/08 02:36:34;;;;;;;1.17;0.77;;;;;;;;;;2096443;28;20036;-59
2023/06/08 02:37:53;;;;;;;2.33;0.80;;;;;;;;;;2087058;28;20037;-59
2023/06/08 02:39:13;;;;;;;0.82;0.63;;;;;;;;;;2090242;28;20032;-59
2023/06/08 02:40:32;;;;;;;0.88;0.73;;;;;;;;;;2094850;28;20029;-59
2023/06/08 02:41:51;;;;;;;2.58;0.93;;;;;;;;;;2094171;28;20024;-58
2023/06/08 02:43:10;;;;;;;0.85;0.73;;;;;;;;;;2096738;28;20025;-58
2023/06/08 02:44:29;;;;;;;1.88;0.60;;;;;;;;;;2093719;28;20553;-59
2023/06/08 02:45:48;;;;;;;1.10;1.00;;;;;;;;;;2079343;28;20025;-59
2023/06/08 02:47:06;;;;;;;1.42;0.95;;;;;;;;;;2091675;28;20040;-58
2023/06/08 02:48:25;;;;;;;0.75;0.70;;;;;;;;;;2095342;28;20533;-59
2023/06/08 02:49:44;;;;;;;2.53;0.80;;;;;;;;;;2094494;28;20036;-59
2023/06/08 02:51:03;;;;;;;1.05;0.90;;;;;;;;;;2094760;28;20497;-60
2023/06/08 02:52:22;;;;;;;0.90;0.80;;;;;;;;;;2096929;28;20064;-60
2023/06/08 02:53:41;;;;;;;2.15;0.95;;;;;;;;;;2093970;28;20029;-60
2023/06/08 02:55:00;;;;;;;1.85;0.82;;;;;;;;;;2093827;28;20036;-59
2023/06/08 02:56:21;;;;;;;2.08;0.75;;;;;;;;;;2094401;28;20033;-59
2023/06/08 02:57:40;;;;;;;2.75;0.70;;;;;;;;;;2095239;28;20033;-59
2023/06/08 02:59:02;;;;;;;1.38;1.00;;;;;;;;;;2094021;28;20032;-59
2023/06/08 03:00:20;;;;;;;1.67;1.13;;;;;;;;;;2092953;28;20107;-60
2023/06/08 03:01:53;;;;;;;1.70;0.90;;;;;;;;;;2094007;28;20036;-61
2023/06/08 03:03:12;;;;;;;1.92;0.77;;;;;;;;;;2085255;28;20029;-58
2023/06/08 03:04:31;;;;;;;1.17;0.80;;;;;;;;;;2092761;28;20028;-60
2023/06/08 03:05:50;;;;;;;1.55;0.90;;;;;;;;;;2084812;28;20029;-60
2023/06/08 03:07:15;;;;;;;1.20;0.98;;;;;;;;;;2090663;28;20037;-58
2023/06/08 03:08:36;;;;;;;1.55;0.60;;;;;;;;;;2094345;28;20029;-60
2023/06/08 03:09:55;;;;;;;1.33;0.80;;;;;;;;;;2095169;28;20037;-61
2023/06/08 03:11:15;;;;;;;2.15;1.00;;;;;;;;;;2094792;28;20357;-61
2023/06/08 03:12:34;;;;;;;0.75;0.75;;;;;;;;;;2094623;28;20037;-64
2023/06/08 03:13:53;;;;;;;1.10;0.70;;;;;;;;;;2093830;28;20028;-58
2023/06/08 03:15:12;;;;;;;0.98;0.90;;;;;;;;;;2095107;28;20390;-71
2023/06/08 03:16:31;;;;;;;3.25;1.08;;;;;;;;;;2095779;28;20036;-60
2023/06/08 03:17:53;;;;;;;1.95;0.80;;;;;;;;;;2095218;28;20104;-62
2023/06/08 03:19:13;;;;;;;1.42;0.90;;;;;;;;;;2095956;28;20389;-59
2023/06/08 03:20:32;;;;;;;2.58;0.70;;;;;;;;;;2095105;28;20029;-59
2023/06/08 03:21:51;;;;;;;1.45;0.70;;;;;;;;;;2093336;28;20120;-59
2023/06/08 03:23:10;;;;;;;1.30;0.80;;;;;;;;;;2093155;28;20025;-60
2023/06/08 03:24:31;;;;;;;1.75;1.05;;;;;;;;;;2094762;28;20021;-59
2023/06/08 03:25:50;;;;;;;1.05;0.80;;;;;;;;;;2095207;28;20432;-59
2023/06/08 03:27:10;;;;;;;1.40;0.80;;;;;;;;;;2092440;28;20390;-60
2023/06/08 03:28:29;;;;;;;1.95;0.77;;;;;;;;;;2092689;28;20029;-57
2023/06/08 03:29:48;;;;;;;0.90;0.90;;;;;;;;;;2086148;28;20021;-58
2023/06/08 03:31:07;;;;;;;1.15;0.70;;;;;;;;;;2082351;28;20037;-60
2023/06/08 03:32:25;;;;;;;2.13;0.80;;;;;;;;;;2090917;28;20560;-58
2023/06/08 03:33:44;;;;;;;1.05;0.95;;;;;;;;;;2093487;28;20070;-59
2023/06/08 03:35:04;;;;;;;2.03;0.90;;;;;;;;;;2094125;28;20037;-59
2023/06/08 03:36:33;;;;;;;1.50;0.93;;;;;;;;;;2095870;28;20040;-59
2023/06/08 03:37:52;;;;;;;1.30;1.20;;;;;;;;;;2094399;28;20055;-62
2023/06/08 03:39:11;;;;;;;1.08;0.75;;;;;;;;;;2096239;28;20513;-62
2023/06/08 03:40:30;;;;;;;2.28;0.98;;;;;;;;;;2096052;28;20389;-58
2023/06/08 03:41:49;;;;;;;4.30;0.80;;;;;;;;;;2094058;28;20036;-59
2023/06/08 03:43:08;;;;;;;1.77;0.98;;;;;;;;;;2095016;28;20029;-59
2023/06/08 03:44:27;;;;;;;1.98;0.95;;;;;;;;;;2092049;28;20489;-61
2023/06/08 03:45:46;;;;;;;3.35;1.08;;;;;;;;;;2091828;28;20028;-61
2023/06/08 03:47:08;;;;;;;3.42;1.00;;;;;;;;;;2091798;28;20037;-63
2023/06/08 03:48:27;;;;;;;3.08;1.10;;;;;;;;;;2093472;28;20474;-58
2023/06/08 03:49:47;;;;;;;4.60;0.75;;;;;;;;;;2094223;28;20040;-59
2023/06/08 03:51:05;;;;;;;1.27;1.15;;;;;;;;;;2094910;28;20478;-59
2023/06/08 03:52:25;;;;;;;1.30;0.95;;;;;;;;;;2093733;28;20036;-61
2023/06/08 03:53:43;;;;;;;1.83;1.30;;;;;;;;;;2094209;28;20024;-59
2023/06/08 03:55:03;;;;;;;1.10;0.90;;;;;;;;;;2094267;28;20422;-61
2023/06/08 03:56:22;;;;;;;2.38;1.00;;;;;;;;;;2092586;28;20032;-59
2023/06/08 03:57:41;;;;;;;0.93;0.82;;;;;;;;;;2092814;28;20032;-60
2023/06/08 03:59:01;;;;;;;5.18;0.90;;;;;;;;;;2095362;28;20024;-59
2023/06/08 04:00:20;;;;;;;4.63;1.23;;;;;;;;;;2091784;28;20025;-60
2023/06/08 04:01:41;;;;;;;1.35;0.98;;;;;;;;;;2094663;28;20033;-59
2023/06/08 04:03:01;;;;;;;2.95;1.20;;;;;;;;;;2092761;28;20139;-59
2023/06/08 04:04:20;;;;;;;1.75;1.08;;;;;;;;;;2084724;28;20029;-59
2023/06/08 04:05:39;;;;;;;3.17;0.90;;;;;;;;;;2090560;28;20485;-60
2023/06/08 04:07:00;;;;;;;1.00;0.70;;;;;;;;;;2090325;28;20029;-60
2023/06/08 04:08:19;;;;;;;1.15;0.90;;;;;;;;;;2093618;28;20052;-59
2023/06/08 04:09:38;;;;;;;2.63;1.17;;;;;;;;;;2094509;28;20025;-60
2023/06/08 04:11:00;;;;;;;2.13;1.10;;;;;;;;;;2094250;28;20040;-61
2023/06/08 04:12:19;;;;;;;2.63;0.90;;;;;;;;;;2076687;28;20037;-62
2023/06/08 04:13:39;;;;;;;2.20;1.02;;;;;;;;;;2077796;28;20029;-61
2023/06/08 04:14:58;;;;;;;2.90;1.10;;;;;;;;;;2081408;28;20144;-58
2023/06/08 04:16:17;;;;;;;2.63;0.98;;;;;;;;;;2089908;28;20037;-60
2023/06/08 04:17:41;;;;;;;1.58;1.00;;;;;;;;;;2083341;28;20060;-59
2023/06/08 04:19:00;;;;;;;;;;;;;;;;;;2092760;28;20024;-60
2023/06/08 04:20:18;;;;;;;3.28;1.33;;;;;;;;;;2085745;28;19905;-61
2023/06/08 04:21:37;;;;;;;3.15;0.93;;;;;;;;;;2092094;28;20044;-58
2023/06/08 04:22:57;;;;;;;2.97;1.00;;;;;;;;;;2082191;28;20530;-59
2023/06/08 04:24:16;;;;;;;2.95;1.20;;;;;;;;;;2088011;28;20033;-58
2023/06/08 04:25:35;;;;;;;1.20;0.90;;;;;;;;;;2094092;28;20029;-59
2023/06/08 04:26:56;;;;;;;1.48;1.00;;;;;;;;;;2092951;28;20024;-59
2023/06/08 04:28:15;;;;;;;1.20;1.10;;;;;;;;;;2095945;28;20028;-58
2023/06/08 04:29:34;;;;;;;1.27;1.17;;;;;;;;;;2094030;28;20024;-59
2023/06/08 04:30:53;;;;;;;3.60;1.17;;;;;;;;;;2090474;28;20036;-59
2023/06/08 04:32:12;;;;;;;2.47;1.10;;;;;;;;;;2095019;28;20029;-59
2023/06/08 04:33:31;;;;;;;1.92;1.10;;;;;;;;;;2094959;28;20028;-59
2023/06/08 04:34:50;;;;;;;1.67;1.20;;;;;;;;;;2096968;28;20025;-59
2023/06/08 04:36:09;;;;;;;1.55;1.30;;;;;;;;;;2096440;28;20037;-58
2023/06/08 04:37:28;;;;;;;5.35;1.33;;;;;;;;;;2093440;28;20112;-59
2023/06/08 04:38:47;;;;;;;3.72;1.15;;;;;;;;;;2092374;28;20029;-59
2023/06/08 04:40:09;;;;;;;1.77;1.08;;;;;;;;;;2093573;28;20029;-59
2023/06/08 04:41:31;;;;;;;2.85;1.30;;;;;;;;;;2097086;28;20032;-60
2023/06/08 04:42:51;;;;;;;1.70;1.17;;;;;;;;;;2095975;28;20020;-59
2023/06/08 04:44:13;;;;;;;4.03;1.45;;;;;;;;;;2094209;28;20020;-59
2023/06/08 04:45:33;;;;;;;4.25;1.63;;;;;;;;;;2084932;28;20029;-59
2023/06/08 04:46:53;;;;;;;4.75;1.48;;;;;;;;;;2089263;28;20041;-60
2023/06/08 04:48:12;;;;;;;2.42;1.20;;;;;;;;;;2094947;28;20036;-58
2023/06/08 04:49:31;;;;;;;1.55;1.40;;;;;;;;;;2093176;28;20033;-59
2023/06/08 04:50:50;;;;;;;1.75;1.30;;;;;;;;;;2092316;28;20033;-59
2023/06/08 04:52:13;;;;;;;1.33;1.20;;;;;;;;;;2094601;28;20021;-59
2023/06/08 04:53:35;;;;;;;1.55;1.45;;;;;;;;;;2083298;28;20033;-59
2023/06/08 04:54:55;;;;;;;1.38;1.27;;;;;;;;;;2091024;28;20052;-58
2023/06/08 04:56:18;;;;;;;2.22;1.27;;;;;;;;;;2094687;28;20024;-58
2023/06/08 04:57:37;;;;;;;1.73;1.38;;;;;;;;;;2092393;28;20028;-59
2023/06/08 04:58:56;;;;;;;2.97;2.10;;;;;;;;;;2095131;28;20112;-59
2023/06/08 05:00:15;;;;;;;2.72;1.73;;;;;;;;;;2093688;28;20036;-60
2023/06/08 05:01:34;;;;;;;2.08;1.30;;;;;;;;;;2094456;28;20032;-59
2023/06/08 05:02:54;;;;;;;7.60;2.00;;;;;;;;;;2094649;28;20036;-59
2023/06/08 05:04:13;;;;;;;3.47;1.10;;;;;;;;;;2095126;28;20099;-58
2023/06/08 05:05:32;;;;;;;1.85;1.63;;;;;;;;;;2093952;28;20095;-58
2023/06/08 05:06:51;;;;;;;3.72;1.70;;;;;;;;;;2093500;28;20036;-60
2023/06/08 05:08:10;;;;;;;1.45;1.30;;;;;;;;;;2087260;28;20033;-59
2023/06/08 05:09:29;;;;;;;1.60;1.38;;;;;;;;;;2091893;28;20025;-59
2023/06/08 05:10:48;;;;;;;1.60;1.50;;;;;;;;;;2094191;28;20438;-58
2023/06/08 05:12:07;;;;;;;1.73;1.63;;;;;;;;;;2094947;28;20393;-59
2023/06/08 05:13:27;;;;;;;1.98;1.48;;;;;;;;;;2095318;28;20036;-60
2023/06/08 05:14:46;;;;;;;2.10;1.90;;;;;;;;;;2094884;28;20032;-60
2023/06/08 05:16:05;;;;;;;2.05;1.48;;;;;;;;;;2092174;28;20025;-60
2023/06/08 05:17:23;;;;;;;2.55;1.45;;;;;;;;;;2093390;28;20131;-59
2023/06/08 05:18:42;;;;;;;3.47;1.50;;;;;;;;;;2092685;28;20711;-59
2023/06/08 05:20:01;;;;;;;1.70;1.40;;;;;;;;;;2094766;28;20072;-60
2023/06/08 05:21:20;;;;;;;2.05;1.52;;;;;;;;;;2091108;28;20020;-59
2023/06/08 05:22:39;;;;;;;2.35;1.50;;;;;;;;;;2094973;28;20040;-59
2023/06/08 05:23:58;;;;;;;1.50;1.40;;;;;;;;;;2095731;28;20029;-59
2023/06/08 05:25:17;;;;;;;1.23;1.13;;;;;;;;;;2094368;28;20033;-58
2023/06/08 05:26:37;;;;;;;2.35;1.58;;;;;;;;;;2097032;28;20028;-59
2023/06/08 05:27:56;;;;;;;3.08;1.40;;;;;;;;;;2093853;28;20033;-59
2023/06/08 05:29:15;;;;;;;3.55;1.77;;;;;;;;;;2094281;28;20032;-58
2023/06/08 05:30:34;;;;;;;1.80;1.38;;;;;;;;;;2091402;28;20024;-57
2023/06/08 05:31:53;;;;;;;4.68;1.95;;;;;;;;;;2095696;28;20091;-59
2023/06/08 05:33:12;;;;;;;3.40;1.75;;;;;;;;;;2092204;28;20461;-59
2023/06/08 05:34:30;;;;;;;2.67;1.73;;;;;;;;;;2094947;28;20056;-60
2023/06/08 05:35:49;;;;;;;2.17;1.73;;;;;;;;;;2094989;28;20505;-59
2023/06/08 05:37:09;;;;;;;4.78;2.10;;;;;;;;;;2092885;28;20036;-59
2023/06/08 05:38:28;;;;;;;2.83;1.98;;;;;;;;;;2094616;28;20024;-59
2023/06/08 05:39:47;;;;;;;1.75;1.65;;;;;;;;;;2093217;28;20041;-60
2023/06/08 05:41:06;;;;;;;3.42;2.13;;;;;;;;;;2092616;28;20060;-60
2023/06/08 05:42:25;;;;;;;5.13;2.30;;;;;;;;;;2092415;28;20024;-60
2023/06/08 05:43:45;;;;;;;5.55;2.40;;;;;;;;;;2094492;28;20032;-60
2023/06/08 05:45:04;;;;;;;9.43;2.80;;;;;;;;;;2093756;28;20127;-59
2023/06/08 05:46:23;;;;;;;2.50;2.15;;;;;;;;;;2095715;28;20029;-58
2023/06/08 05:47:42;;;;;;;2.50;2.17;;;;;;;;;;2096562;28;20498;-60
2023/06/08 05:49:01;;;;;;;3.20;2.08;;;;;;;;;;2095143;28;20032;-60
2023/06/08 05:50:20;;;;;;;7.72;2.58;;;;;;;;;;2087694;28;20491;-60
2023/06/08 05:51:39;;;;;;;4.93;2.90;;;;;;;;;;2093092;28;20036;-59
2023/06/08 05:52:59;;;;;;;7.00;2.42;;;;;;;;;;2091976;28;20033;-60
2023/06/08 05:54:18;;;;;;;5.03;2.58;;;;;;;;;;2092679;28;20029;-60
2023/06/08 05:55:41;;;;;;;3.50;2.47;;;;;;;;;;2082014;28;20037;-59
2023/06/08 05:57:01;;;;;;;5.85;2.47;;;;;;;;;;2087636;28;20036;-60
2023/06/08 05:58:21;;;;;;;4.75;1.80;;;;;;;;;;2078174;28;20041;-61
2023/06/08 05:59:40;;;;;;;6.72;2.60;;;;;;;;;;2090725;28;20052;-60
2023/06/08 06:00:59;;;;;;;5.18;2.00;;;;;;;;;;2086290;28;20033;-60
2023/06/08 06:02:18;;;;;;;5.28;2.13;;;;;;;;;;2090703;28;20474;-59
2023/06/08 06:03:37;;;;;;;3.88;2.10;;;;;;;;;;2095282;28;20029;-59
2023/06/08 06:04:56;;;;;;;4.97;1.92;;;;;;;;;;2094321;28;20029;-60
2023/06/08 06:06:16;;;;;;;3.47;1.77;;;;;;;;;;2094856;28;20036;-60
2023/06/08 06:07:35;;;;;;;2.42;1.75;;;;;;;;;;2094996;28;20064;-59
2023/06/08 06:08:53;;;;;;;3.83;1.80;;;;;;;;;;2096327;28;20029;-58
2023/06/08 06:10:12;;;;;;;2.20;1.83;;;;;;;;;;2085655;28;20029;-59
2023/06/08 06:11:31;;;;;;;3.53;1.90;;;;;;;;;;2091768;28;20018;-60
2023/06/08 06:12:50;;;;;;;4.28;1.95;;;;;;;;;;2094556;28;20549;-59
2023/06/08 06:14:09;;;;;;;2.97;2.70;;;;;;;;;;2093620;28;20032;-60
2023/06/08 06:15:28;;;;;;;5.50;2.45;;;;;;;;;;2093760;28;20032;-60
2023/06/08 06:16:47;;;;;;;3.45;1.83;;;;;;;;;;2095054;28;20429;-59
2023/06/08 06:18:06;;;;;;;4.32;1.70;;;;;;;;;;2095137;28;20067;-60
2023/06/08 06:19:25;;;;;;;5.97;2.75;;;;;;;;;;2094826;28;20036;-59
2023/06/08 06:20:44;;;;;;;2.30;2.10;;;;;;;;;;2095153;28;20406;-59
2023/06/08 06:22:04;;;;;;;3.78;2.00;;;;;;;;;;2095730;28;20025;-60
2023/06/08 06:23:23;;;;;;;2.72;1.90;;;;;;;;;;2086100;28;20025;-59
2023/06/08 06:24:42;;;;;;;3.30;2.10;;;;;;;;;;2092096;28;20444;-58
2023/06/08 06:26:01;;;;;;;11.60;2.25;;;;;;;;;;2095590;28;20033;-59
2023/06/08 06:27:20;;;;;;;3.92;2.50;;;;;;;;;;2093924;28;20501;-60
2023/06/08 06:28:39;;;;;;;5.85;2.33;;;;;;;;;;2095779;28;20486;-60
2023/06/08 06:29:57;;;;;;;13.85;8.82;;;;;;;;;;2095558;28;20025;-60
2023/06/08 06:31:16;;;;;;;5.65;2.75;;;;;;;;;;2094136;28;20044;-60
2023/06/08 06:32:35;;;;;;;5.20;4.70;;;;;;;;;;2094318;28;20033;-60
2023/06/08 06:33:54;;;;;;;5.97;2.75;;;;;;;;;;2094038;28;20454;-60
2023/06/08 06:35:13;;;;;;;6.43;2.67;;;;;;;;;;2094895;28;20040;-61
2023/06/08 06:36:32;;;;;;;6.82;2.30;;;;;;;;;;2096003;28;20029;-60
2023/06/08 06:37:53;;;;;;;6.95;2.30;;;;;;;;;;2095492;28;20617;-60
2023/06/08 06:39:12;;;;;;;3.15;2.33;;;;;;;;;;2094627;28;20032;-61
2023/06/08 06:40:31;;;;;;;4.00;2.00;;;;;;;;;;2094878;28;20692;-60
2023/06/08 06:41:51;;;;;;;5.43;2.20;;;;;;;;;;2093366;28;20040;-60
2023/06/08 06:43:10;;;;;;;3.95;2.00;;;;;;;;;;2094478;28;20386;-60
2023/06/08 06:44:28;;;;;;;4.55;1.95;;;;;;;;;;2095215;28;20029;-60
2023/06/08 06:45:50;;;;;;;7.85;2.85;;;;;;;;;;2092614;28;21158;-60
2023/06/08 06:47:09;;;;;;;5.47;4.38;;;;;;;;;;2096627;28;20028;-60
2023/06/08 06:48:28;;;;;;;6.35;3.55;;;;;;;;;;2093709;28;20424;-60
2023/06/08 06:49:47;;;;;;;4.90;2.50;;;;;;;;;;2093439;28;20033;-61
2023/06/08 06:51:06;;;;;;;5.13;2.78;;;;;;;;;;2092941;28;20033;-59
2023/06/08 06:52:25;;;;;;;4.80;2.67;;;;;;;;;;2094400;28;20029;-59
2023/06/08 06:53:44;;;;;;;4.47;2.00;;;;;;;;;;2093272;28;20025;-59
2023/06/08 06:55:03;;;;;;;6.07;2.20;;;;;;;;;;2095163;28;20144;-60
2023/06/08 06:56:22;;;;;;;8.35;2.58;;;;;;;;;;2094498;28;20029;-59
2023/06/08 06:57:41;;;;;;;3.80;2.40;;;;;;;;;;2094706;28;20029;-63
2023/06/08 06:59:01;;;;;;;2.78;2.15;;;;;;;;;;2083417;28;20029;-59
2023/06/08 07:00:21;;;;;;;4.60;1.85;;;;;;;;;;2088957;28;20041;-59
2023/06/08 07:01:41;;;;;;;4.72;2.28;;;;;;;;;;2095398;28;20041;-60
2023/06/08 07:02:59;;;;;;;6.38;3.00;;;;;;;;;;2096292;28;20025;-59
2023/06/08 07:04:19;;;;;;;3.85;2.78;;;;;;;;;;2096986;28;20080;-59
2023/06/08 07:05:38;;;;;;;5.57;2.95;;;;;;;;;;2094735;28;20020;-61
2023/06/08 07:06:57;;;;;;;3.92;2.88;;;;;;;;;;2095244;28;20394;-60
2023/06/08 07:08:17;;;;;;;4.97;2.10;;;;;;;;;;2095658;28;20028;-59
2023/06/08 07:09:36;;;;;;;3.63;2.63;;;;;;;;;;2095244;28;20029;-60
2023/06/08 07:10:55;;;;;;;3.97;2.03;;;;;;;;;;2094318;28;20112;-60
2023/06/08 07:12:13;;;;;;;3.45;2.55;;;;;;;;;;2093944;28;20116;-60
2023/06/08 07:13:32;;;;;;;3.45;2.00;;;;;;;;;;2094898;28;20381;-59
2023/06/08 07:14:51;;;;;;;2.72;2.30;;;;;;;;;;2095307;28;20025;-60
2023/06/08 07:16:10;;;;;;;6.05;2.42;;;;;;;;;;2095762;28;20024;-61
2023/06/08 07:17:30;;;;;;;3.47;2.25;;;;;;;;;;2092965;28;20025;-60
2023/06/08 07:18:49;;;;;;;4.75;3.00;;;;;;;;;;2093259;28;20398;-60
2023/06/08 07:20:09;;;;;;;4.18;2.38;;;;;;;;;;2094550;28;20032;-60
2023/06/08 07:21:28;;;;;;;3.70;2.90;;;;;;;;;;2094633;28;20064;-60
2023/06/08 07:22:47;;;;;;;3.78;2.67;;;;;;;;;;2094700;28;20095;-60
2023/06/08 07:24:06;;;;;;;6.20;2.63;;;;;;;;;;2095636;28;20024;-62
2023/06/08 07:25:24;;;;;;;5.60;2.50;;;;;;;;;;2087967;28;20040;-59
2023/06/08 07:26:45;;;;;;;7.10;3.10;;;;;;;;;;2093789;28;20493;-60
2023/06/08 07:28:05;;;;;;;3.80;3.00;;;;;;;;;;2096314;28;20025;-60
2023/06/08 07:29:23;;;;;;;3.63;2.70;;;;;;;;;;2087054;28;20514;-59
2023/06/08 07:30:42;;;;;;;7.15;3.70;;;;;;;;;;2091934;28;20024;-59
2023/06/08 07:32:02;;;;;;;8.68;2.85;;;;;;;;;;2084397;28;20086;-59
2023/06/08 07:33:21;;;;;;;14.73;8.30;;;;;;;;;;2089821;28;20020;-59
2023/06/08 07:34:40;;;;;;;11.15;4.82;;;;;;;;;;2094208;28;20640;-60
2023/06/08 07:35:59;;;;;;;7.18;3.75;;;;;;;;;;2093609;28;20032;-60
2023/06/08 07:37:19;;;;;;;4.63;3.17;;;;;;;;;;2092543;28;20017;-60
2023/06/08 07:38:37;;;;;;;8.90;3.22;;;;;;;;;;2093752;28;20111;-60
2023/06/08 07:39:57;;;;;;;7.97;3.67;;;;;;;;;;2093192;28;20401;-60
2023/06/08 07:41:16;;;;;;;6.53;3.08;;;;;;;;;;2095054;28;20033;-60
2023/06/08 07:42:35;;;;;;;6.50;2.58;;;;;;;;;;2083616;28;20029;-60
2023/06/08 07:43:55;;;;;;;5.55;2.22;;;;;;;;;;2091027;28;20028;-59
2023/06/08 07:45:14;;;;;;;2.88;2.30;;;;;;;;;;2094578;28;20482;-60
2023/06/08 07:46:33;;;;;;;6.38;2.58;;;;;;;;;;2094063;28;20036;-59
2023/06/08 07:47:52;;;;;;;5.97;4.15;;;;;;;;;;2094734;28;20501;-59
2023/06/08 07:49:11;;;;;;;6.03;3.10;;;;;;;;;;2093636;28;20029;-60
2023/06/08 07:50:29;;;;;;;8.18;2.75;;;;;;;;;;2091990;28;20040;-59
2023/06/08 07:51:48;;;;;;;5.13;2.05;;;;;;;;;;2093393;28;20029;-60
2023/06/08 07:53:07;;;;;;;4.40;2.03;;;;;;;;;;2093564;28;20502;-59
2023/06/08 07:54:26;;;;;;;3.45;2.15;;;;;;;;;;2094648;28;20032;-60
2023/06/08 07:55:45;;;;;;;4.68;1.70;;;;;;;;;;2093415;28;20120;-60
2023/06/08 07:57:05;;;;;;;6.63;2.45;;;;;;;;;;2093832;28;20028;-61
2023/06/08 07:58:24;;;;;;;10.38;3.38;;;;;;;;;;2092023;28;20036;-61
2023/06/08 07:59:43;;;;;;;6.85;3.22;;;;;;;;;;2091194;28;20509;-58